Time;durP1;ratioP1;P1;durP2;ratioP2;P2;SDS_P1;SDS_P2;PMS_P1;PMS_P2;Temp;Humidity;BMP_temperature;BMP_pressure;BME280_temperature;BME280_humidity;BME280_pressure;Samples;Min_cycle;Max_cycle;Signal;HPM_P1;HPM_P2
2022/04/09 00:01:29;;;;;;;7.67;3.87;;;;;;;;;;5013645;28;20803;-68
2022/04/09 00:04:14;;;;;;;10.70;4.83;;;;;;;;;;5008432;28;20479;-68
2022/04/09 00:06:41;;;;;;;7.03;3.37;;;;;;;;;;5019140;28;20552;-68
2022/04/09 00:09:08;;;;;;;10.80;5.10;;;;;;;;;;5026660;28;20476;-67
2022/04/09 00:11:34;;;;;;;8.63;4.47;;;;;;;;;;5024769;28;20469;-68
2022/04/09 00:14:01;;;;;;;4.40;1.83;;;;;;;;;;5009769;28;20443;-68
2022/04/09 00:16:28;;;;;;;7.13;3.83;;;;;;;;;;5013855;28;20470;-68
2022/04/09 00:18:55;;;;;;;4.60;2.60;;;;;;;;;;5012011;28;21163;-67
2022/04/09 00:21:22;;;;;;;8.47;3.50;;;;;;;;;;5013466;28;20562;-67
2022/04/09 00:24:06;;;;;;;5.53;3.37;;;;;;;;;;5007113;28;20427;-67
2022/04/09 00:26:33;;;;;;;6.33;3.00;;;;;;;;;;5010032;28;20965;-68
2022/04/09 00:29:00;;;;;;;5.53;3.27;;;;;;;;;;5009084;28;20470;-68
2022/04/09 00:31:27;;;;;;;8.43;4.40;;;;;;;;;;5008181;28;20522;-68
2022/04/09 00:33:54;;;;;;;8.80;3.97;;;;;;;;;;4991047;28;20447;-67
2022/04/09 00:36:39;;;;;;;6.90;3.70;;;;;;;;;;5015728;28;20430;-67
2022/04/09 00:39:06;;;;;;;7.27;3.47;;;;;;;;;;5024635;28;20528;-67
2022/04/09 00:41:33;;;;;;;7.63;3.50;;;;;;;;;;5008727;28;20799;-67
2022/04/09 00:43:59;;;;;;;7.07;3.47;;;;;;;;;;5026320;28;20917;-67
2022/04/09 00:46:26;;;;;;;5.00;3.40;;;;;;;;;;5022058;28;20450;-68
2022/04/09 00:49:11;;;;;;;11.97;3.97;;;;;;;;;;5013720;28;20553;-68
2022/04/09 00:51:42;;;;;;;6.77;3.20;;;;;;;;;;5013548;28;20533;-67
2022/04/09 00:54:26;;;;;;;5.33;3.13;;;;;;;;;;5026034;28;20426;-68
2022/04/09 00:56:54;;;;;;;5.97;3.13;;;;;;;;;;5015632;28;20799;-67
2022/04/09 00:59:39;;;;;;;6.40;2.73;;;;;;;;;;5008357;28;20795;-67
2022/04/09 01:02:06;;;;;;;6.07;3.10;;;;;;;;;;5020777;28;20446;-68
2022/04/09 01:39:58;;;;;;;6.40;3.73;;;;;;;;;;5018542;28;20439;-67
2022/04/09 01:42:27;;;;;;;7.80;4.87;;;;;;;;;;5030297;28;20813;-67
2022/04/09 01:44:56;;;;;;;7.07;4.60;;;;;;;;;;5025875;28;20887;-67
2022/04/09 01:47:23;;;;;;;6.90;3.50;;;;;;;;;;5009329;28;20447;-67
2022/04/09 01:49:50;;;;;;;5.93;3.93;;;;;;;;;;5010035;28;21028;-67
2022/04/09 01:52:17;;;;;;;7.37;4.37;;;;;;;;;;4994174;28;20439;-67
2022/04/09 01:54:44;;;;;;;8.43;5.40;;;;;;;;;;5010898;28;20469;-68
2022/04/09 01:57:11;;;;;;;8.77;4.77;;;;;;;;;;5018401;28;20437;-67
2022/04/09 01:59:41;;;;;;;8.03;4.83;;;;;;;;;;5020235;28;20484;-67
2022/04/09 02:02:09;;;;;;;8.30;5.57;;;;;;;;;;5029434;28;20901;-67
2022/04/09 02:04:36;;;;;;;5.63;3.97;;;;;;;;;;5015284;28;20493;-67
2022/04/09 02:07:03;;;;;;;7.50;5.00;;;;;;;;;;5011028;28;20481;-66
2022/04/09 02:09:29;;;;;;;7.80;5.07;;;;;;;;;;5010809;28;20486;-66
2022/04/09 02:11:56;;;;;;;10.00;4.70;;;;;;;;;;5010329;28;20489;-66
2022/04/09 02:14:23;;;;;;;8.17;5.13;;;;;;;;;;5024779;28;20477;-67
2022/04/09 02:16:49;;;;;;;6.97;4.93;;;;;;;;;;5029168;28;20442;-67
2022/04/09 02:19:17;;;;;;;7.67;5.73;;;;;;;;;;5016280;28;21002;-67
2022/04/09 02:21:44;;;;;;;11.50;5.43;;;;;;;;;;4993993;28;20447;-66
2022/04/09 02:24:10;;;;;;;10.60;5.77;;;;;;;;;;5011382;28;20545;-67
2022/04/09 02:26:37;;;;;;;9.07;6.37;;;;;;;;;;5011393;28;20958;-67
2022/04/09 02:29:05;;;;;;;9.83;5.33;;;;;;;;;;5011249;28;20512;-67
2022/04/09 02:31:31;;;;;;;10.70;6.20;;;;;;;;;;4993314;28;20919;-66
2022/04/09 02:33:58;;;;;;;10.70;5.60;;;;;;;;;;5009269;28;20450;-66
2022/04/09 02:36:28;;;;;;;9.93;4.87;;;;;;;;;;5011848;28;20449;-66
2022/04/09 02:38:55;;;;;;;9.13;4.90;;;;;;;;;;5019805;28;20522;-66
2022/04/09 02:41:22;;;;;;;8.70;5.53;;;;;;;;;;5014081;28;20474;-66
2022/04/09 02:43:53;;;;;;;9.33;5.40;;;;;;;;;;5011682;28;20484;-66
2022/04/09 02:46:21;;;;;;;11.33;5.40;;;;;;;;;;5017623;28;20779;-66
2022/04/09 02:48:47;;;;;;;9.20;4.83;;;;;;;;;;5014000;28;20894;-66
2022/04/09 02:51:17;;;;;;;7.57;4.57;;;;;;;;;;5012564;28;20517;-66
2022/04/09 02:53:44;;;;;;;6.07;3.13;;;;;;;;;;5009241;28;20450;-66
2022/04/09 02:56:12;;;;;;;7.63;3.93;;;;;;;;;;5010008;28;20823;-66
2022/04/09 02:58:39;;;;;;;6.13;4.10;;;;;;;;;;5009731;28;20442;-66
2022/04/09 03:01:06;;;;;;;9.17;4.77;;;;;;;;;;5008843;28;20435;-66
2022/04/09 03:03:34;;;;;;;8.40;5.47;;;;;;;;;;5025033;28;20470;-66
2022/04/09 03:06:01;;;;;;;8.40;5.17;;;;;;;;;;5028607;28;21256;-66
2022/04/09 03:08:28;;;;;;;9.77;5.53;;;;;;;;;;5024089;28;20517;-66
2022/04/09 03:10:54;;;;;;;11.40;5.90;;;;;;;;;;5006577;28;20553;-66
2022/04/09 03:13:21;;;;;;;9.23;5.50;;;;;;;;;;5017425;28;21141;-66
2022/04/09 03:16:06;;;;;;;10.67;5.60;;;;;;;;;;5018481;28;20439;-66
2022/04/09 03:18:33;;;;;;;7.87;5.20;;;;;;;;;;5011533;28;20473;-66
2022/04/09 03:21:00;;;;;;;7.10;4.53;;;;;;;;;;5027626;28;20462;-66
2022/04/09 03:23:28;;;;;;;6.70;4.63;;;;;;;;;;5009393;28;20938;-66
2022/04/09 03:25:57;;;;;;;11.07;5.33;;;;;;;;;;5007906;28;20447;-66
2022/04/09 03:28:34;;;;;;;9.43;5.50;;;;;;;;;;5015198;28;20509;-67
2022/04/09 03:31:02;;;;;;;8.03;4.20;;;;;;;;;;5013536;28;21100;-67
2022/04/09 03:33:31;;;;;;;5.93;3.90;;;;;;;;;;5011585;28;20453;-67
2022/04/09 03:36:02;;;;;;;9.17;4.97;;;;;;;;;;5006982;28;20442;-67
2022/04/09 03:38:30;;;;;;;11.57;5.53;;;;;;;;;;5019126;28;20443;-67
2022/04/09 03:40:58;;;;;;;7.60;3.83;;;;;;;;;;5007842;28;20990;-67
2022/04/09 03:43:44;;;;;;;9.57;5.10;;;;;;;;;;5016167;28;20449;-67
2022/04/09 03:46:32;;;;;;;4.40;2.27;;;;;;;;;;5015322;28;20439;-67
2022/04/09 03:49:03;;;;;;;7.27;4.63;;;;;;;;;;5020548;28;20540;-67
2022/04/09 03:51:48;;;;;;;11.53;4.67;;;;;;;;;;5019237;28;20946;-67
2022/04/09 03:54:18;;;;;;;6.43;3.83;;;;;;;;;;5019349;28;20476;-67
2022/04/09 03:56:46;;;;;;;6.50;4.03;;;;;;;;;;5011627;28;20859;-67
2022/04/09 03:59:15;;;;;;;7.23;4.27;;;;;;;;;;5005958;28;20447;-67
2022/04/09 04:01:47;;;;;;;6.97;4.17;;;;;;;;;;5023551;28;20453;-67
2022/04/09 04:04:17;;;;;;;7.33;3.40;;;;;;;;;;5007231;28;20478;-67
2022/04/09 04:06:46;;;;;;;5.50;2.90;;;;;;;;;;5007085;28;20571;-67
2022/04/09 04:09:14;;;;;;;5.10;3.53;;;;;;;;;;5011576;28;20982;-67
2022/04/09 04:11:43;;;;;;;5.80;2.87;;;;;;;;;;5001436;28;20442;-67
2022/04/09 04:14:11;;;;;;;5.10;3.30;;;;;;;;;;5019455;28;20811;-67
2022/04/09 04:16:38;;;;;;;5.67;3.10;;;;;;;;;;5011302;28;20446;-67
2022/04/09 04:19:06;;;;;;;4.97;3.07;;;;;;;;;;5022880;28;20478;-67
2022/04/09 04:21:33;;;;;;;8.30;3.30;;;;;;;;;;5027009;28;20779;-67
2022/04/09 04:24:05;;;;;;;6.87;3.40;;;;;;;;;;5008266;28;20447;-66
2022/04/09 04:26:51;;;;;;;8.07;3.33;;;;;;;;;;5023007;28;21022;-66
2022/04/09 04:29:21;;;;;;;7.53;2.43;;;;;;;;;;5007846;28;20488;-66
2022/04/09 04:31:48;;;;;;;3.40;2.30;;;;;;;;;;5012295;28;20806;-66
2022/04/09 04:34:16;;;;;;;8.97;3.33;;;;;;;;;;5008313;28;20981;-66
2022/04/09 04:36:45;;;;;;;6.23;2.83;;;;;;;;;;5018657;28;20534;-67
2022/04/09 04:39:12;;;;;;;9.13;3.57;;;;;;;;;;5010996;28;20461;-67
2022/04/09 04:41:43;;;;;;;10.03;4.97;;;;;;;;;;5013434;28;20450;-66
2022/04/09 04:44:13;;;;;;;6.03;2.53;;;;;;;;;;5006710;28;20444;-67
2022/04/09 04:46:44;;;;;;;7.07;3.40;;;;;;;;;;5006320;28;20450;-67
2022/04/09 04:49:16;;;;;;;10.33;3.87;;;;;;;;;;4995708;28;21012;-67
2022/04/09 04:51:47;;;;;;;7.93;4.17;;;;;;;;;;5012444;28;20451;-67
2022/04/09 04:54:14;;;;;;;6.87;3.60;;;;;;;;;;5020950;28;20537;-67
2022/04/09 04:56:43;;;;;;;8.43;3.30;;;;;;;;;;5014951;28;20554;-67
2022/04/09 04:59:09;;;;;;;4.13;2.47;;;;;;;;;;5014492;28;20908;-66
2022/04/09 05:01:40;;;;;;;7.17;2.87;;;;;;;;;;4990975;28;20439;-66
2022/04/09 05:04:08;;;;;;;9.03;2.80;;;;;;;;;;4984217;28;20474;-66
2022/04/09 05:06:58;;;;;;;7.20;3.00;;;;;;;;;;5037245;28;20967;-66
2022/04/09 05:09:26;;;;;;;6.83;3.90;;;;;;;;;;5039944;28;20452;-67
2022/04/09 05:12:11;;;;;;;7.03;3.63;;;;;;;;;;5039156;28;20439;-66
2022/04/09 05:14:42;;;;;;;5.60;3.93;;;;;;;;;;5039966;28;20449;-71
2022/04/09 05:17:13;;;;;;;7.20;4.30;;;;;;;;;;5037739;28;20437;-66
2022/04/09 05:19:41;;;;;;;7.20;3.70;;;;;;;;;;5022562;28;20540;-67
2022/04/09 05:22:11;;;;;;;5.43;2.93;;;;;;;;;;5037579;28;20445;-70
2022/04/09 05:24:55;;;;;;;6.07;4.20;;;;;;;;;;5038809;28;20456;-67
2022/04/09 05:27:23;;;;;;;6.80;3.37;;;;;;;;;;5004531;28;20974;-67
2022/04/09 05:29:50;;;;;;;3.97;3.10;;;;;;;;;;5040039;28;21000;-67
2022/04/09 05:32:19;;;;;;;5.80;4.00;;;;;;;;;;5038330;28;20553;-67
2022/04/09 05:34:46;;;;;;;8.60;3.53;;;;;;;;;;5038352;28;20452;-68
2022/04/09 05:37:14;;;;;;;6.23;3.30;;;;;;;;;;5021649;28;20452;-67
2022/04/09 05:39:41;;;;;;;5.70;3.60;;;;;;;;;;5022171;28;20500;-66
2022/04/09 05:42:09;;;;;;;5.70;2.87;;;;;;;;;;5039410;28;20456;-68
2022/04/09 05:44:36;;;;;;;7.17;2.70;;;;;;;;;;5023607;28;20448;-69
2022/04/09 05:47:04;;;;;;;4.20;2.37;;;;;;;;;;5036788;28;20529;-69
2022/04/09 05:49:31;;;;;;;2.67;1.90;;;;;;;;;;5039518;28;20457;-69
2022/04/09 05:51:59;;;;;;;5.07;1.97;;;;;;;;;;5039065;28;20437;-69
2022/04/09 05:54:27;;;;;;;3.37;2.57;;;;;;;;;;5020288;28;20891;-68
2022/04/09 05:56:54;;;;;;;7.30;3.63;;;;;;;;;;5040536;28;21228;-65
2022/04/09 05:59:26;;;;;;;6.37;3.20;;;;;;;;;;5023057;28;20522;-65
2022/04/09 06:01:54;;;;;;;9.63;3.30;;;;;;;;;;5039404;28;20935;-66
2022/04/09 06:04:22;;;;;;;7.30;3.50;;;;;;;;;;4996420;28;20474;-66
2022/04/09 06:06:55;;;;;;;9.17;3.70;;;;;;;;;;5018015;28;20453;-66
2022/04/09 06:09:24;;;;;;;6.70;3.07;;;;;;;;;;5017333;28;20452;-66
2022/04/09 06:11:55;;;;;;;4.47;2.63;;;;;;;;;;5017914;28;20545;-67
2022/04/09 06:14:28;;;;;;;5.03;2.57;;;;;;;;;;5021152;28;20454;-68
2022/04/09 06:16:58;;;;;;;6.63;2.60;;;;;;;;;;5006552;28;20603;-66
2022/04/09 06:19:27;;;;;;;7.00;2.27;;;;;;;;;;5021828;28;20457;-66
2022/04/09 06:21:55;;;;;;;6.73;2.40;;;;;;;;;;5022399;28;20449;-68
2022/04/09 06:24:22;;;;;;;5.20;1.53;;;;;;;;;;5022099;28;20450;-66
2022/04/09 06:26:49;;;;;;;3.67;2.00;;;;;;;;;;5019400;28;21237;-67
2022/04/09 06:29:17;;;;;;;5.47;1.90;;;;;;;;;;5022733;28;20536;-67
2022/04/09 06:31:47;;;;;;;5.63;2.10;;;;;;;;;;5021129;28;20486;-66
2022/04/09 06:34:16;;;;;;;4.43;2.40;;;;;;;;;;5022050;28;20456;-65
2022/04/09 06:36:45;;;;;;;7.23;2.43;;;;;;;;;;5005850;28;20558;-66
2022/04/09 06:39:12;;;;;;;5.93;1.97;;;;;;;;;;5005818;28;20497;-65
2022/04/09 06:41:41;;;;;;;8.33;2.70;;;;;;;;;;5019027;28;20546;-64
2022/04/09 06:44:11;;;;;;;7.33;2.30;;;;;;;;;;5020893;28;21028;-65
2022/04/09 06:46:49;;;;;;;4.43;2.23;;;;;;;;;;5019644;28;20542;-66
2022/04/09 06:49:43;;;;;;;4.07;2.40;;;;;;;;;;5020668;28;20496;-66
2022/04/09 06:52:14;;;;;;;7.43;2.93;;;;;;;;;;5022402;28;20438;-66
2022/04/09 06:54:59;;;;;;;8.93;4.00;;;;;;;;;;5021921;28;20453;-67
2022/04/09 06:57:28;;;;;;;7.37;3.07;;;;;;;;;;5021253;28;20802;-68
2022/04/09 06:59:57;;;;;;;4.70;2.30;;;;;;;;;;5022582;28;20450;-66
2022/04/09 07:02:24;;;;;;;8.67;2.33;;;;;;;;;;5021710;28;20530;-66
2022/04/09 07:04:53;;;;;;;9.07;2.70;;;;;;;;;;4995351;28;20482;-65
2022/04/09 07:07:37;;;;;;;6.57;2.20;;;;;;;;;;5022446;28;20430;-66
2022/04/09 07:10:05;;;;;;;5.23;2.50;;;;;;;;;;5021674;28;20462;-65
2022/04/09 07:12:32;;;;;;;4.07;1.63;;;;;;;;;;5021082;28;20453;-66
2022/04/09 07:14:59;;;;;;;3.97;1.47;;;;;;;;;;5020740;28;21343;-66
2022/04/09 07:17:26;;;;;;;6.63;2.47;;;;;;;;;;5023957;28;20440;-65
2022/04/09 07:20:11;;;;;;;4.47;1.83;;;;;;;;;;5021490;28;20515;-67
2022/04/09 07:22:38;;;;;;;6.27;1.60;;;;;;;;;;5021145;28;20924;-67
2022/04/09 07:25:05;;;;;;;6.80;1.93;;;;;;;;;;5022688;28;20508;-66
2022/04/09 07:27:38;;;;;;;8.43;2.30;;;;;;;;;;5019802;28;20439;-66
2022/04/09 07:30:06;;;;;;;3.67;1.83;;;;;;;;;;4996806;28;20454;-67
2022/04/09 07:32:34;;;;;;;2.33;1.03;;;;;;;;;;5015110;28;20526;-69
2022/04/09 07:35:01;;;;;;;10.67;1.83;;;;;;;;;;5014583;28;21288;-66
2022/04/09 07:37:54;;;;;;;5.43;2.07;;;;;;;;;;5020742;28;21045;-66
2022/04/09 07:40:30;;;;;;;5.10;1.17;;;;;;;;;;5026116;28;20453;-66
2022/04/09 07:42:57;;;;;;;4.73;1.83;;;;;;;;;;5017779;28;20449;-65
2022/04/09 07:45:24;;;;;;;5.87;1.70;;;;;;;;;;5008599;28;20980;-66
2022/04/09 07:47:54;;;;;;;5.57;1.90;;;;;;;;;;5018090;28;20434;-65
2022/04/09 07:50:21;;;;;;;2.60;1.17;;;;;;;;;;5011669;28;20483;-66
2022/04/09 07:52:48;;;;;;;4.43;1.50;;;;;;;;;;5027456;28;20528;-66
2022/04/09 07:55:16;;;;;;;2.73;1.13;;;;;;;;;;5017617;28;20449;-65
2022/04/09 07:57:45;;;;;;;2.30;1.40;;;;;;;;;;5027626;28;20418;-66
2022/04/09 08:00:15;;;;;;;6.97;2.27;;;;;;;;;;5013759;28;20435;-65
2022/04/09 08:02:42;;;;;;;3.33;1.40;;;;;;;;;;5007910;28;20442;-66
2022/04/09 08:05:26;;;;;;;5.43;1.70;;;;;;;;;;5008797;28;20224;-65
2022/04/09 08:07:52;;;;;;;7.40;2.10;;;;;;;;;;5016778;28;20435;-65
2022/04/09 08:10:19;;;;;;;6.63;1.53;;;;;;;;;;5026326;28;20559;-65
2022/04/09 08:12:49;;;;;;;4.93;1.20;;;;;;;;;;5008841;28;20567;-67
2022/04/09 08:15:18;;;;;;;5.03;1.50;;;;;;;;;;5009354;28;20798;-65
2022/04/09 08:17:47;;;;;;;5.53;1.50;;;;;;;;;;5017557;28;20262;-65
2022/04/09 08:20:14;;;;;;;3.83;1.17;;;;;;;;;;5021145;28;20561;-65
2022/04/09 08:22:41;;;;;;;3.03;1.03;;;;;;;;;;5021755;28;20667;-66
2022/04/09 08:25:10;;;;;;;3.00;0.93;;;;;;;;;;5024460;28;20249;-66
2022/04/09 08:27:38;;;;;;;1.60;0.80;;;;;;;;;;5009836;28;20190;-66
2022/04/09 08:30:06;;;;;;;5.50;1.60;;;;;;;;;;5008693;28;20241;-66
2022/04/09 08:32:52;;;;;;;2.27;0.87;;;;;;;;;;5009888;28;20454;-66
2022/04/09 08:35:19;;;;;;;4.23;1.10;;;;;;;;;;5019393;28;20558;-66
2022/04/09 08:37:55;;;;;;;3.00;1.03;;;;;;;;;;5020333;28;20541;-66
2022/04/09 08:40:22;;;;;;;3.37;1.07;;;;;;;;;;5011805;28;20457;-65
2022/04/09 08:42:49;;;;;;;3.13;1.27;;;;;;;;;;5008289;28;20208;-65
2022/04/09 08:45:16;;;;;;;2.27;1.10;;;;;;;;;;4993118;28;20784;-65
2022/04/09 08:47:43;;;;;;;1.67;1.03;;;;;;;;;;5021273;28;20458;-65
2022/04/09 08:50:11;;;;;;;4.27;1.50;;;;;;;;;;5013596;28;20541;-66
2022/04/09 08:52:39;;;;;;;5.80;1.77;;;;;;;;;;5020233;28;20540;-65
2022/04/09 08:55:06;;;;;;;4.70;1.13;;;;;;;;;;5003052;28;20192;-66
2022/04/09 08:57:34;;;;;;;1.97;0.83;;;;;;;;;;5034479;28;20991;-66
2022/04/09 09:00:10;;;;;;;6.93;1.40;;;;;;;;;;5045097;28;20822;-66
2022/04/09 09:02:37;;;;;;;4.10;1.60;;;;;;;;;;5048053;28;20444;-66
2022/04/09 09:05:04;;;;;;;2.43;1.17;;;;;;;;;;5017591;28;20508;-66
2022/04/09 09:07:31;;;;;;;3.43;1.07;;;;;;;;;;5010773;28;20864;-65
2022/04/09 09:10:19;;;;;;;7.87;1.70;;;;;;;;;;5020827;28;20183;-66
2022/04/09 09:12:56;;;;;;;4.97;1.40;;;;;;;;;;5039443;28;20826;-67
2022/04/09 09:15:25;;;;;;;4.30;1.40;;;;;;;;;;5038193;28;20320;-67
2022/04/09 09:17:55;;;;;;;4.60;1.37;;;;;;;;;;5040120;28;20434;-65
2022/04/09 09:20:23;;;;;;;6.30;1.73;;;;;;;;;;5037137;28;20256;-68
2022/04/09 09:22:50;;;;;;;6.27;1.73;;;;;;;;;;5038528;28;20903;-70
2022/04/09 09:25:17;;;;;;;3.20;1.00;;;;;;;;;;5037145;28;20526;-69
2022/04/09 09:27:44;;;;;;;6.70;2.00;;;;;;;;;;5038241;28;20242;-66
2022/04/09 09:30:13;;;;;;;9.00;2.00;;;;;;;;;;5037394;28;20210;-63
2022/04/09 09:32:41;;;;;;;3.87;1.60;;;;;;;;;;5038804;28;20218;-66
2022/04/09 09:35:10;;;;;;;6.90;1.60;;;;;;;;;;5040261;28;20290;-67
2022/04/09 09:37:38;;;;;;;5.33;1.40;;;;;;;;;;5022830;28;20653;-65
2022/04/09 09:40:05;;;;;;;5.13;1.87;;;;;;;;;;5038149;28;20298;-65
2022/04/09 09:42:35;;;;;;;1.67;0.80;;;;;;;;;;5039016;28;20229;-64
2022/04/09 09:45:02;;;;;;;8.10;2.37;;;;;;;;;;5039790;28;20745;-69
2022/04/09 09:47:29;;;;;;;4.60;1.20;;;;;;;;;;5040118;28;20597;-67
2022/04/09 09:49:59;;;;;;;6.63;1.83;;;;;;;;;;5042858;28;20441;-68
2022/04/09 09:52:30;;;;;;;5.27;1.93;;;;;;;;;;5043586;28;20479;-68
2022/04/09 09:54:57;;;;;;;1.50;0.80;;;;;;;;;;5026141;28;20447;-68
2022/04/09 09:57:26;;;;;;;3.70;1.00;;;;;;;;;;5043141;28;20457;-67
2022/04/09 09:59:57;;;;;;;8.07;1.60;;;;;;;;;;5043709;28;20453;-67
2022/04/09 10:02:31;;;;;;;3.90;1.20;;;;;;;;;;5044830;28;20437;-69
2022/04/09 10:05:16;;;;;;;3.73;1.20;;;;;;;;;;5042200;28;21283;-69
2022/04/09 10:07:43;;;;;;;5.47;1.70;;;;;;;;;;5043185;28;20568;-67
2022/04/09 10:10:10;;;;;;;4.33;1.60;;;;;;;;;;5041024;28;21117;-68
2022/04/09 10:12:39;;;;;;;4.50;1.37;;;;;;;;;;5039499;28;20573;-68
2022/04/09 10:15:06;;;;;;;8.33;2.20;;;;;;;;;;5041459;28;20587;-68
2022/04/09 10:17:34;;;;;;;5.03;2.10;;;;;;;;;;5051526;28;20466;-65
2022/04/09 10:20:02;;;;;;;4.10;1.63;;;;;;;;;;5043381;28;20478;-67
2022/04/09 10:22:35;;;;;;;2.40;1.40;;;;;;;;;;5047600;28;20456;-69
2022/04/09 10:25:03;;;;;;;4.10;1.60;;;;;;;;;;5037053;28;20448;-68
2022/04/09 10:27:33;;;;;;;3.20;1.63;;;;;;;;;;5028991;28;20446;-68
2022/04/09 10:30:02;;;;;;;5.23;1.53;;;;;;;;;;5047772;28;20553;-68
2022/04/09 10:32:48;;;;;;;5.83;2.10;;;;;;;;;;5037200;28;20477;-67
2022/04/09 10:35:21;;;;;;;2.47;1.60;;;;;;;;;;5030099;28;20996;-68
2022/04/09 10:38:06;;;;;;;3.87;1.37;;;;;;;;;;5015930;28;20449;-68
2022/04/09 10:40:33;;;;;;;2.77;1.50;;;;;;;;;;5036173;28;20448;-68
2022/04/09 10:43:01;;;;;;;7.10;2.23;;;;;;;;;;5062885;28;20454;-68
2022/04/09 10:45:28;;;;;;;7.13;2.13;;;;;;;;;;5045857;28;20449;-67
2022/04/09 10:48:06;;;;;;;7.20;1.37;;;;;;;;;;5033828;28;20521;-68
2022/04/09 10:50:53;;;;;;;5.53;2.30;;;;;;;;;;5022388;28;20260;-67
2022/04/09 10:53:23;;;;;;;3.97;1.37;;;;;;;;;;5053320;28;20898;-68
2022/04/09 10:56:31;;;;;;;5.10;1.87;;;;;;;;;;5015187;28;20251;-67
2022/04/09 10:59:11;;;;;;;5.00;1.20;;;;;;;;;;5029460;28;20192;-67
2022/04/09 11:01:50;;;;;;;3.00;1.20;;;;;;;;;;5032248;28;20249;-67
2022/04/09 11:04:27;;;;;;;3.87;1.20;;;;;;;;;;5049126;28;20272;-67
2022/04/09 11:07:14;;;;;;;5.33;1.00;;;;;;;;;;5050169;28;20179;-68
2022/04/09 11:09:41;;;;;;;6.67;1.00;;;;;;;;;;5049853;28;20213;-67
2022/04/09 11:12:07;;;;;;;3.63;1.20;;;;;;;;;;5050084;28;20218;-67
2022/04/09 11:14:54;;;;;;;4.33;1.40;;;;;;;;;;5048764;28;20187;-67
2022/04/09 11:17:37;;;;;;;5.83;1.67;;;;;;;;;;5048638;28;20213;-67
2022/04/09 11:20:09;;;;;;;2.50;1.00;;;;;;;;;;5048068;28;20209;-67
2022/04/09 11:22:40;;;;;;;6.53;1.77;;;;;;;;;;5049844;28;20274;-68
2022/04/09 11:25:07;;;;;;;2.37;1.10;;;;;;;;;;5049328;28;20187;-68
2022/04/09 11:27:35;;;;;;;3.40;1.43;;;;;;;;;;5048472;28;20199;-67
2022/04/09 11:30:03;;;;;;;6.00;1.00;;;;;;;;;;5049756;28;20179;-67
2022/04/09 11:32:32;;;;;;;3.27;1.23;;;;;;;;;;5045817;28;20211;-67
2022/04/09 11:34:59;;;;;;;1.87;0.73;;;;;;;;;;5029403;28;20832;-66
2022/04/09 11:37:29;;;;;;;2.07;0.90;;;;;;;;;;5028171;28;20241;-66
2022/04/09 11:39:57;;;;;;;2.23;1.10;;;;;;;;;;5039110;28;20197;-67
2022/04/09 11:42:24;;;;;;;5.40;1.37;;;;;;;;;;5038286;28;20186;-66
2022/04/09 11:44:50;;;;;;;1.77;0.73;;;;;;;;;;5040221;28;20226;-66
2022/04/09 11:47:18;;;;;;;3.43;1.10;;;;;;;;;;5028173;28;20192;-66
2022/04/09 11:49:47;;;;;;;5.60;1.80;;;;;;;;;;5029238;28;20213;-67
2022/04/09 11:52:23;;;;;;;1.70;0.80;;;;;;;;;;5035571;28;20206;-65
2022/04/09 11:54:51;;;;;;;2.43;0.80;;;;;;;;;;5046820;28;20535;-65
2022/04/09 11:57:17;;;;;;;5.17;0.90;;;;;;;;;;5064191;28;20537;-61
2022/04/09 11:59:45;;;;;;;6.07;1.37;;;;;;;;;;5061058;28;20202;-61
2022/04/09 12:02:19;;;;;;;3.77;1.10;;;;;;;;;;5049124;28;20187;-64
2022/04/09 12:04:46;;;;;;;4.63;1.13;;;;;;;;;;5059675;28;20215;-68
2022/04/09 12:07:12;;;;;;;1.90;0.70;;;;;;;;;;5027553;28;20207;-67
2022/04/09 12:09:39;;;;;;;2.47;1.10;;;;;;;;;;5051723;28;20186;-73
2022/04/09 12:12:07;;;;;;;5.60;0.93;;;;;;;;;;5051947;28;20214;-68
2022/04/09 12:14:33;;;;;;;4.30;1.10;;;;;;;;;;5057944;28;20273;-66
2022/04/09 12:17:11;;;;;;;3.77;0.87;;;;;;;;;;5040776;28;20289;-66
2022/04/09 12:19:42;;;;;;;6.70;1.50;;;;;;;;;;5051126;28;20199;-65
2022/04/09 12:22:17;;;;;;;5.50;1.20;;;;;;;;;;5043566;28;20216;-67
2022/04/09 12:24:52;;;;;;;4.30;1.40;;;;;;;;;;5045168;28;20190;-72
2022/04/09 12:27:22;;;;;;;2.90;1.23;;;;;;;;;;5046516;28;20612;-66
2022/04/09 12:29:53;;;;;;;5.17;1.23;;;;;;;;;;5029347;28;20291;-73
2022/04/09 12:32:23;;;;;;;4.10;1.00;;;;;;;;;;5063703;28;20218;-76
2022/04/09 12:34:52;;;;;;;1.80;0.70;;;;;;;;;;5029868;28;20198;-75
2022/04/09 12:37:20;;;;;;;4.27;1.27;;;;;;;;;;5039771;28;20217;-68
2022/04/09 12:39:47;;;;;;;1.90;0.93;;;;;;;;;;5047850;28;20240;-68
2022/04/09 12:42:15;;;;;;;1.40;0.60;;;;;;;;;;5037342;28;20195;-72
2022/04/09 12:44:43;;;;;;;3.80;1.37;;;;;;;;;;5034261;28;20186;-62
2022/04/09 12:47:10;;;;;;;2.90;0.60;;;;;;;;;;5055120;28;20360;-65
2022/04/09 12:49:37;;;;;;;2.30;0.83;;;;;;;;;;5055027;28;20557;-66
2022/04/09 12:52:11;;;;;;;2.93;0.80;;;;;;;;;;5061614;28;20620;-77
2022/04/09 12:54:40;;;;;;;2.17;0.83;;;;;;;;;;5031136;28;20190;-78
2022/04/09 12:57:23;;;;;;;4.63;0.80;;;;;;;;;;5039103;28;20757;-72
2022/04/09 12:59:53;;;;;;;3.90;0.93;;;;;;;;;;5033381;28;20240;-82
2022/04/09 13:02:22;;;;;;;4.07;0.97;;;;;;;;;;5045225;28;20236;-75
2022/04/09 13:04:49;;;;;;;3.60;1.20;;;;;;;;;;5053946;28;21347;-75
2022/04/09 13:07:16;;;;;;;4.10;0.90;;;;;;;;;;5035855;28;20189;-68
2022/04/09 13:09:43;;;;;;;1.73;0.80;;;;;;;;;;5054701;28;20186;-68
2022/04/09 13:12:11;;;;;;;4.70;1.97;;;;;;;;;;5053821;28;20692;-68
2022/04/09 13:14:38;;;;;;;4.40;1.10;;;;;;;;;;5032136;28;20202;-64
2022/04/09 13:17:07;;;;;;;2.80;0.87;;;;;;;;;;5037603;28;20197;-65
2022/04/09 13:19:35;;;;;;;1.50;0.70;;;;;;;;;;5022664;28;20210;-64
2022/04/09 13:22:03;;;;;;;4.57;1.17;;;;;;;;;;5038451;28;21019;-66
2022/04/09 13:24:30;;;;;;;5.80;1.10;;;;;;;;;;5043237;28;20194;-65
2022/04/09 13:26:57;;;;;;;2.90;1.23;;;;;;;;;;5043301;28;20191;-63
2022/04/09 13:29:23;;;;;;;4.97;1.20;;;;;;;;;;5043318;28;20252;-64
2022/04/09 13:31:50;;;;;;;5.67;1.30;;;;;;;;;;5041051;28;20215;-66
2022/04/09 13:34:18;;;;;;;2.50;0.90;;;;;;;;;;5040863;28;20809;-65
2022/04/09 13:36:45;;;;;;;3.70;0.87;;;;;;;;;;5039859;28;20569;-65
2022/04/09 13:39:12;;;;;;;4.77;1.60;;;;;;;;;;5038830;28;20661;-66
2022/04/09 13:41:56;;;;;;;5.17;1.00;;;;;;;;;;5040880;28;20659;-65
2022/04/09 13:44:24;;;;;;;4.53;1.27;;;;;;;;;;5040315;28;20183;-66
2022/04/09 13:46:51;;;;;;;2.20;0.93;;;;;;;;;;5038325;28;20191;-66
2022/04/09 13:49:18;;;;;;;1.77;0.90;;;;;;;;;;5039997;28;20245;-66
2022/04/09 13:52:03;;;;;;;2.97;0.83;;;;;;;;;;5041298;28;20268;-67
2022/04/09 13:54:32;;;;;;;2.80;1.10;;;;;;;;;;5037961;28;20218;-78
2022/04/09 13:57:18;;;;;;;4.20;1.07;;;;;;;;;;5042529;28;20654;-71
2022/04/09 13:59:44;;;;;;;3.53;0.73;;;;;;;;;;5039374;28;20195;-76
2022/04/09 14:02:11;;;;;;;3.50;1.27;;;;;;;;;;5041970;28;20310;-74
2022/04/09 14:04:39;;;;;;;4.57;1.17;;;;;;;;;;5043161;28;20215;-76
2022/04/09 14:07:06;;;;;;;7.47;1.23;;;;;;;;;;5042408;28;20190;-73
2022/04/09 14:09:33;;;;;;;1.97;0.90;;;;;;;;;;5060815;28;20736;-72
2022/04/09 14:12:01;;;;;;;2.47;0.97;;;;;;;;;;5070002;28;20599;-71
2022/04/09 14:14:28;;;;;;;3.30;0.63;;;;;;;;;;5064865;28;20191;-70
2022/04/09 14:16:55;;;;;;;2.83;0.80;;;;;;;;;;5048853;28;20194;-72
2022/04/09 14:19:22;;;;;;;4.27;1.00;;;;;;;;;;5031158;28;20210;-71
2022/04/09 14:21:50;;;;;;;2.40;1.20;;;;;;;;;;5030397;28;20698;-73
2022/04/09 14:24:17;;;;;;;2.60;0.80;;;;;;;;;;5039057;28;20651;-72
2022/04/09 14:26:44;;;;;;;3.40;0.70;;;;;;;;;;5041535;28;20286;-73
2022/04/09 14:29:11;;;;;;;3.27;0.90;;;;;;;;;;5041999;28;20191;-69
2022/04/09 14:31:38;;;;;;;4.90;1.00;;;;;;;;;;5042491;28;20219;-72
2022/04/09 14:34:05;;;;;;;2.17;0.73;;;;;;;;;;5041629;28;20194;-72
2022/04/09 14:36:33;;;;;;;5.07;1.20;;;;;;;;;;5042204;28;20191;-71
2022/04/09 14:39:18;;;;;;;3.60;1.30;;;;;;;;;;5042798;28;20179;-73
2022/04/09 14:41:46;;;;;;;3.07;0.77;;;;;;;;;;5042672;28;20249;-71
2022/04/09 14:44:13;;;;;;;3.40;1.47;;;;;;;;;;5042786;28;20665;-72
2022/04/09 14:46:40;;;;;;;6.07;1.73;;;;;;;;;;5043124;28;20270;-72
2022/04/09 14:49:08;;;;;;;4.03;1.20;;;;;;;;;;5040518;28;21049;-74
2022/04/09 14:51:35;;;;;;;2.77;1.00;;;;;;;;;;5040981;28;20179;-72
2022/04/09 14:54:02;;;;;;;3.67;1.00;;;;;;;;;;5040169;28;20215;-73
2022/04/09 14:56:29;;;;;;;4.23;1.40;;;;;;;;;;5022920;28;20276;-73
2022/04/09 14:58:58;;;;;;;2.07;0.90;;;;;;;;;;5042062;28;20769;-73
2022/04/09 15:01:28;;;;;;;2.47;0.60;;;;;;;;;;5025316;28;20211;-72
2022/04/09 15:03:55;;;;;;;4.73;1.40;;;;;;;;;;5043658;28;20312;-69
2022/04/09 15:06:23;;;;;;;2.97;1.20;;;;;;;;;;5042232;28;20190;-69
2022/04/09 15:09:00;;;;;;;5.13;1.07;;;;;;;;;;5025896;28;20254;-69
2022/04/09 15:11:44;;;;;;;2.43;0.77;;;;;;;;;;5042740;28;20175;-70
2022/04/09 15:14:11;;;;;;;1.67;0.73;;;;;;;;;;5043319;28;20207;-67
2022/04/09 15:16:38;;;;;;;2.30;0.70;;;;;;;;;;5043669;28;20190;-69
2022/04/09 15:19:09;;;;;;;3.33;0.70;;;;;;;;;;5043235;28;20277;-72
2022/04/09 15:21:36;;;;;;;0.93;0.60;;;;;;;;;;5041850;28;20221;-74
2022/04/09 15:24:05;;;;;;;1.20;0.70;;;;;;;;;;5021632;28;20309;-72
2022/04/09 15:26:33;;;;;;;1.27;0.80;;;;;;;;;;5022107;28;20282;-72
2022/04/09 15:29:03;;;;;;;2.00;0.77;;;;;;;;;;5021829;28;20199;-74
2022/04/09 15:31:32;;;;;;;2.23;0.80;;;;;;;;;;5021847;28;20203;-74
2022/04/09 15:34:08;;;;;;;3.23;0.80;;;;;;;;;;5022386;28;20237;-74
2022/04/09 15:36:35;;;;;;;3.00;1.07;;;;;;;;;;5022136;28;20187;-74